Terminal Aerodrome Forecast
Issued by NWS Boston, MA

Home | Current Version | Previous Version | Text Only | Print | Product List | Glossary On
Versions: 1 2 3 4 5 6 7 8 9 10 11 12 13 14 15 16 17 18 19 20 21 22 23 24 25 26 27 28 29 30 31 32 33 34 35 36 37 38 39 40 41 42 43 44 45 46 47 48
000
FTUS41 KBOX 260827 AAG
TAFBDL
TAF AMD
KBDL 260827Z 2608/2712 03006KT P6SM VCSH BKN030 OVC045
     FM261300 05006KT 6SM -DZRA VCSH OVC015
     FM261900 19004KT 3SM -DZ BR VCSH OVC008
     FM270500 26005KT 3SM -DZ BR BKN010 OVC020
     FM270700 29006KT 6SM BR BKN020
     FM271000 33007KT P6SM BKN040=

USA.gov is the U.S. government's official web portal to all federal, state and local government web resources and services.